Time;durP1;ratioP1;P1;durP2;ratioP2;P2;SDS_P1;SDS_P2;PMS_P1;PMS_P2;Temp;Humidity;BMP_temperature;BMP_pressure;BME280_temperature;BME280_humidity;BME280_pressure;Samples;Min_cycle;Max_cycle;Signal;HPM_P1;HPM_P2
2022/02/01 00:01:46;;;;;;;13.40;2.17;;;;;;;;;;5008691;28;20220;-70
2022/02/01 00:04:28;;;;;;;13.27;2.00;;;;;;;;;;4992067;28;20781;-70
2022/02/01 00:09:36;;;;;;;14.57;2.30;;;;;;;;;;5010284;28;20672;-70
2022/02/01 00:12:15;;;;;;;9.87;1.80;;;;;;;;;;4990531;28;20620;-70
2022/02/01 00:38:30;;;;;;;5.77;1.50;;;;;;;;;;5008308;28;20261;-71
2022/02/01 00:41:03;;;;;;;9.77;2.37;;;;;;;;;;4990054;28;20183;-69
2022/02/01 00:43:28;;;;;;;13.97;2.60;;;;;;;;;;4973175;28;20265;-69
2022/02/01 00:45:53;;;;;;;6.67;1.23;;;;;;;;;;5010126;28;20563;-71
2022/02/01 00:48:18;;;;;;;7.63;1.40;;;;;;;;;;5009294;28;20205;-70
2022/02/01 00:50:43;;;;;;;7.80;2.40;;;;;;;;;;5008301;28;20175;-70
2022/02/01 00:53:09;;;;;;;8.10;2.20;;;;;;;;;;5008766;28;20179;-70
2022/02/01 00:55:34;;;;;;;15.17;2.70;;;;;;;;;;5011041;28;20195;-70
2022/02/01 00:57:59;;;;;;;9.03;2.40;;;;;;;;;;5010027;28;20175;-70
2022/02/01 01:00:24;;;;;;;10.33;2.07;;;;;;;;;;5007774;28;20646;-70
2022/02/01 01:02:49;;;;;;;9.97;1.57;;;;;;;;;;5010295;28;20189;-70
2022/02/01 01:05:15;;;;;;;10.30;2.60;;;;;;;;;;5030475;23;20234;-69
2022/02/01 01:07:40;;;;;;;10.20;2.33;;;;;;;;;;5027595;28;20275;-69
2022/02/01 01:10:06;;;;;;;13.17;2.33;;;;;;;;;;5028282;28;20261;-69
2022/02/01 01:12:35;;;;;;;8.40;2.80;;;;;;;;;;5025172;28;20551;-69
2022/02/01 01:43:35;;;;;;;13.17;2.20;;;;;;;;;;5008705;28;20219;-70
2022/02/01 01:44:46;;;;;;;12.13;1.63;;;;;;;;;;5006724;28;20282;-71
2022/02/01 01:53:11;;;;;;;12.40;2.03;;;;;;;;;;5008773;28;20661;-70
2022/02/01 01:55:38;;;;;;;9.40;1.90;;;;;;;;;;5008831;28;20215;-70
2022/02/01 01:58:04;;;;;;;12.63;2.00;;;;;;;;;;5009414;28;20673;-70
2022/02/01 02:03:10;;;;;;;10.73;2.20;;;;;;;;;;5026529;28;20189;-70
2022/02/01 02:05:36;;;;;;;19.33;4.30;;;;;;;;;;5010393;28;20214;-70
2022/02/01 02:08:02;;;;;;;8.23;1.70;;;;;;;;;;5012473;28;20246;-70
2022/02/01 02:10:31;;;;;;;10.57;1.80;;;;;;;;;;5010939;28;20190;-70
2022/02/01 02:14:17;;;;;;;10.00;1.93;;;;;;;;;;5008142;28;20648;-70
2022/02/01 02:16:06;;;;;;;10.50;2.00;;;;;;;;;;5013226;28;20202;-70
2022/02/01 02:18:33;;;;;;;10.10;2.00;;;;;;;;;;5011019;28;20561;-70
2022/02/01 02:20:59;;;;;;;12.07;2.33;;;;;;;;;;5000625;28;20194;-70
2022/02/01 02:23:25;;;;;;;10.77;1.60;;;;;;;;;;5011168;28;20271;-70
2022/02/01 02:25:51;;;;;;;9.37;1.93;;;;;;;;;;5018145;28;20214;-70
2022/02/01 02:28:17;;;;;;;9.53;3.27;;;;;;;;;;5012806;28;20226;-70
2022/02/01 02:30:48;;;;;;;7.80;1.43;;;;;;;;;;5013039;28;20251;-69
2022/02/01 02:33:15;;;;;;;7.00;1.60;;;;;;;;;;5009276;28;20187;-70
2022/02/01 02:36:02;;;;;;;9.03;2.03;;;;;;;;;;4994605;28;20203;-70
2022/02/01 02:46:40;;;;;;;9.53;1.70;;;;;;;;;;4940488;28;20208;-71
2022/02/01 02:49:06;;;;;;;5.30;1.80;;;;;;;;;;4993747;28;20179;-70
2022/02/01 02:51:32;;;;;;;5.50;1.47;;;;;;;;;;5010264;28;20179;-70
2022/02/01 02:53:57;;;;;;;11.10;3.47;;;;;;;;;;5011223;28;20252;-69
2022/02/01 02:56:22;;;;;;;8.47;2.17;;;;;;;;;;5012751;28;20175;-71
2022/02/01 02:58:51;;;;;;;9.57;2.00;;;;;;;;;;5009494;28;20179;-70
2022/02/01 03:01:17;;;;;;;8.20;2.23;;;;;;;;;;5011696;28;21031;-70
2022/02/01 03:03:42;;;;;;;6.90;1.27;;;;;;;;;;5007001;28;20194;-70
2022/02/01 03:06:08;;;;;;;4.57;1.30;;;;;;;;;;5011408;28;20214;-70
2022/02/01 03:08:34;;;;;;;5.30;1.43;;;;;;;;;;5007748;28;20612;-70
2022/02/01 03:11:01;;;;;;;13.63;2.83;;;;;;;;;;4989622;28;20278;-71
2022/02/01 03:13:30;;;;;;;5.13;1.30;;;;;;;;;;5006548;28;20175;-70
2022/02/01 03:16:03;;;;;;;7.50;2.00;;;;;;;;;;5012369;28;20203;-70
2022/02/01 03:21:12;;;;;;;7.90;2.20;;;;;;;;;;5010417;28;20642;-70
2022/02/01 03:23:37;;;;;;;10.47;2.10;;;;;;;;;;5014795;28;20218;-69
2022/02/01 03:26:02;;;;;;;10.53;1.90;;;;;;;;;;5009678;28;20197;-71
2022/02/01 03:28:28;;;;;;;9.27;1.77;;;;;;;;;;5005445;28;20214;-70
2022/02/01 03:30:53;;;;;;;4.60;1.70;;;;;;;;;;5007725;28;20174;-70
2022/02/01 03:33:18;;;;;;;14.53;3.03;;;;;;;;;;5008706;28;20179;-70
2022/02/01 03:35:43;;;;;;;9.50;2.17;;;;;;;;;;5009347;28;20203;-70
2022/02/01 03:38:08;;;;;;;10.50;2.00;;;;;;;;;;5008484;28;20179;-70
2022/02/01 03:40:34;;;;;;;10.40;3.13;;;;;;;;;;5009251;28;20691;-70
2022/02/01 03:42:59;;;;;;;7.60;1.90;;;;;;;;;;5010020;28;20320;-70
2022/02/01 03:45:24;;;;;;;7.97;2.07;;;;;;;;;;5010678;28;20199;-70
2022/02/01 03:47:49;;;;;;;8.43;2.40;;;;;;;;;;5011378;28;20214;-70
2022/02/01 03:50:15;;;;;;;8.67;2.27;;;;;;;;;;5010016;28;20653;-70
2022/02/01 03:52:40;;;;;;;9.07;1.87;;;;;;;;;;5010278;28;20189;-70
2022/02/01 03:55:05;;;;;;;9.00;2.47;;;;;;;;;;5009901;28;20209;-69
2022/02/01 03:57:31;;;;;;;7.20;1.80;;;;;;;;;;5010790;28;20199;-69
2022/02/01 03:59:56;;;;;;;13.00;2.57;;;;;;;;;;5010126;28;20183;-70
2022/02/01 04:02:21;;;;;;;9.73;2.63;;;;;;;;;;5009081;28;20183;-70
2022/02/01 04:04:52;;;;;;;8.20;3.37;;;;;;;;;;5010185;28;20225;-69
2022/02/01 04:07:17;;;;;;;14.37;2.43;;;;;;;;;;5010281;28;20269;-70
2022/02/01 04:09:43;;;;;;;10.90;1.97;;;;;;;;;;5010361;28;20661;-69
2022/02/01 04:12:08;;;;;;;13.87;3.03;;;;;;;;;;5008255;28;20175;-70
2022/02/01 04:14:34;;;;;;;8.67;2.23;;;;;;;;;;5009975;28;20195;-70
2022/02/01 04:17:01;;;;;;;9.00;2.10;;;;;;;;;;5009605;28;20251;-70
2022/02/01 04:19:29;;;;;;;7.10;1.87;;;;;;;;;;5009775;28;20616;-70
2022/02/01 04:22:00;;;;;;;9.97;2.30;;;;;;;;;;5010058;28;20183;-69
2022/02/01 04:24:26;;;;;;;14.43;2.97;;;;;;;;;;5009687;28;20252;-70
2022/02/01 04:26:51;;;;;;;5.67;2.17;;;;;;;;;;5010201;28;20203;-70
2022/02/01 04:29:16;;;;;;;13.00;2.53;;;;;;;;;;5006698;28;20180;-70
2022/02/01 04:31:41;;;;;;;8.43;2.40;;;;;;;;;;5009241;28;20731;-71
2022/02/01 04:34:07;;;;;;;9.00;2.47;;;;;;;;;;5009038;28;20201;-70
2022/02/01 04:36:32;;;;;;;10.77;2.90;;;;;;;;;;5010208;28;20175;-70
2022/02/01 04:38:57;;;;;;;11.57;2.23;;;;;;;;;;5003930;28;20633;-69
2022/02/01 04:41:27;;;;;;;8.07;1.87;;;;;;;;;;5007398;28;20167;-71
2022/02/01 04:43:53;;;;;;;10.17;2.37;;;;;;;;;;5008060;28;20893;-70
2022/02/01 04:46:21;;;;;;;9.70;2.77;;;;;;;;;;5008789;28;20179;-70
2022/02/01 04:48:47;;;;;;;8.90;2.60;;;;;;;;;;5007343;28;20209;-70
2022/02/01 04:51:13;;;;;;;10.90;2.93;;;;;;;;;;4991006;28;20175;-71
2022/02/01 04:53:38;;;;;;;18.37;5.87;;;;;;;;;;5009061;28;20274;-70
2022/02/01 04:56:03;;;;;;;11.60;2.53;;;;;;;;;;5023649;28;20231;-70
2022/02/01 04:58:29;;;;;;;6.03;2.77;;;;;;;;;;5017517;28;20183;-71
2022/02/01 05:00:54;;;;;;;8.90;2.70;;;;;;;;;;5009744;28;20202;-70
2022/02/01 05:03:19;;;;;;;8.93;2.33;;;;;;;;;;5009196;28;20613;-70
2022/02/01 05:05:44;;;;;;;18.47;2.67;;;;;;;;;;5007902;28;20211;-70
2022/02/01 05:08:12;;;;;;;17.07;3.40;;;;;;;;;;5008948;28;20581;-70
2022/02/01 05:10:38;;;;;;;8.00;3.40;;;;;;;;;;4990800;28;20202;-70
2022/02/01 05:15:36;;;;;;;22.90;3.10;;;;;;;;;;5009040;28;20237;-70
2022/02/01 05:18:02;;;;;;;15.93;3.53;;;;;;;;;;5008949;28;20274;-70
2022/02/01 05:20:43;;;;;;;11.80;3.00;;;;;;;;;;5009029;28;20245;-70
2022/02/01 05:23:08;;;;;;;16.30;3.27;;;;;;;;;;5006039;28;20187;-70
2022/02/01 05:25:33;;;;;;;15.40;2.90;;;;;;;;;;5008823;28;20218;-69
2022/02/01 05:28:00;;;;;;;12.97;3.43;;;;;;;;;;5007782;28;20238;-69
2022/02/01 05:30:25;;;;;;;10.80;3.77;;;;;;;;;;5009340;28;20194;-70
2022/02/01 05:32:51;;;;;;;16.00;3.80;;;;;;;;;;5011147;28;20179;-69
2022/02/01 05:35:17;;;;;;;15.10;3.93;;;;;;;;;;5012220;28;20206;-70
2022/02/01 05:37:42;;;;;;;12.90;4.20;;;;;;;;;;5012334;28;20178;-70
2022/02/01 05:40:08;;;;;;;25.90;4.87;;;;;;;;;;5012055;28;20187;-71
2022/02/01 05:42:45;;;;;;;12.20;4.20;;;;;;;;;;5012044;28;20532;-71
2022/02/01 05:45:11;;;;;;;16.60;5.60;;;;;;;;;;5012552;28;20198;-70
2022/02/01 05:47:36;;;;;;;17.77;4.47;;;;;;;;;;5012623;28;20332;-71
2022/02/01 05:50:02;;;;;;;12.80;4.87;;;;;;;;;;5010254;28;20197;-70
2022/02/01 05:52:27;;;;;;;20.53;4.33;;;;;;;;;;5009767;28;20202;-71
2022/02/01 05:54:52;;;;;;;11.93;4.43;;;;;;;;;;5009464;28;20199;-70
2022/02/01 05:57:17;;;;;;;16.93;4.17;;;;;;;;;;5010798;28;20680;-69
2022/02/01 05:59:42;;;;;;;20.20;4.90;;;;;;;;;;5012610;28;20191;-70
2022/02/01 06:02:07;;;;;;;21.17;4.50;;;;;;;;;;5010932;28;20186;-70
2022/02/01 06:04:33;;;;;;;14.87;5.13;;;;;;;;;;5010802;28;20207;-70
2022/02/01 06:06:58;;;;;;;13.23;4.77;;;;;;;;;;5011027;28;20203;-70
2022/02/01 06:09:23;;;;;;;16.90;4.10;;;;;;;;;;5009547;28;20493;-70
2022/02/01 06:11:48;;;;;;;13.70;4.53;;;;;;;;;;5010476;28;20183;-70
2022/02/01 06:14:13;;;;;;;15.50;4.70;;;;;;;;;;5011166;28;20224;-69
2022/02/01 06:16:39;;;;;;;13.43;4.70;;;;;;;;;;5013445;28;20179;-70
2022/02/01 06:19:04;;;;;;;19.63;6.67;;;;;;;;;;5011682;28;20193;-69
2022/02/01 06:21:29;;;;;;;14.83;5.80;;;;;;;;;;5015959;28;20187;-70
2022/02/01 06:23:54;;;;;;;24.50;5.60;;;;;;;;;;5011179;28;20187;-72
2022/02/01 06:26:22;;;;;;;22.07;6.17;;;;;;;;;;5008928;28;20172;-70
2022/02/01 06:28:48;;;;;;;16.20;4.67;;;;;;;;;;5010829;28;20203;-70
2022/02/01 06:31:13;;;;;;;14.03;5.27;;;;;;;;;;5011610;28;20621;-72
2022/02/01 06:33:38;;;;;;;16.03;6.93;;;;;;;;;;5011456;28;20167;-70
2022/02/01 06:36:03;;;;;;;23.40;6.87;;;;;;;;;;5011633;28;20556;-71
2022/02/01 06:38:28;;;;;;;19.27;6.87;;;;;;;;;;5011418;28;20183;-70
2022/02/01 06:40:54;;;;;;;20.20;7.13;;;;;;;;;;5008634;28;20209;-71
2022/02/01 06:43:19;;;;;;;18.00;7.37;;;;;;;;;;5011285;28;20191;-69
2022/02/01 06:45:45;;;;;;;21.27;7.93;;;;;;;;;;5009831;28;20218;-70
2022/02/01 06:48:10;;;;;;;20.17;7.30;;;;;;;;;;5011667;28;20211;-70
2022/02/01 06:50:35;;;;;;;17.77;8.40;;;;;;;;;;4994081;28;20179;-70
2022/02/01 06:53:02;;;;;;;24.73;7.90;;;;;;;;;;5009723;28;20206;-72
2022/02/01 06:58:08;;;;;;;26.60;9.63;;;;;;;;;;5009159;28;20301;-69
2022/02/01 07:00:33;;;;;;;25.37;9.80;;;;;;;;;;4993457;28;20241;-71
2022/02/01 07:02:59;;;;;;;22.17;9.40;;;;;;;;;;5011575;28;20183;-70
2022/02/01 07:05:25;;;;;;;23.30;10.43;;;;;;;;;;5043538;23;20260;-70
2022/02/01 07:07:50;;;;;;;22.73;10.67;;;;;;;;;;5051236;28;20209;-69
2022/02/01 07:10:16;;;;;;;24.23;11.30;;;;;;;;;;5051785;28;20247;-69
2022/02/01 07:12:41;;;;;;;27.27;12.10;;;;;;;;;;5048709;28;20211;-70
2022/02/01 07:15:07;;;;;;;27.20;11.63;;;;;;;;;;5041345;28;20234;-70
2022/02/01 07:17:42;;;;;;;27.43;12.17;;;;;;;;;;5031918;28;20182;-70
2022/02/01 07:20:07;;;;;;;24.57;11.33;;;;;;;;;;5026572;28;20178;-70
2022/02/01 07:22:35;;;;;;;27.50;12.10;;;;;;;;;;5030766;28;20186;-70
2022/02/01 07:25:12;;;;;;;24.67;12.13;;;;;;;;;;5030409;28;20202;-70
2022/02/01 07:27:42;;;;;;;23.83;11.73;;;;;;;;;;5030191;28;20704;-69
2022/02/01 07:30:13;;;;;;;25.20;12.20;;;;;;;;;;5012030;28;20208;-69
2022/02/01 07:32:38;;;;;;;25.47;12.60;;;;;;;;;;5028167;28;20193;-70
2022/02/01 07:35:04;;;;;;;23.63;11.87;;;;;;;;;;5031748;28;20668;-70
2022/02/01 07:37:30;;;;;;;20.43;11.33;;;;;;;;;;5032681;28;20170;-70
2022/02/01 07:39:55;;;;;;;21.53;11.07;;;;;;;;;;5032374;28;20189;-70
2022/02/01 07:42:20;;;;;;;21.60;10.83;;;;;;;;;;5031924;28;20186;-70
2022/02/01 07:44:46;;;;;;;18.77;10.60;;;;;;;;;;5031170;28;20201;-70
2022/02/01 07:47:18;;;;;;;17.03;11.00;;;;;;;;;;5032337;28;20205;-70
2022/02/01 07:49:46;;;;;;;23.80;9.93;;;;;;;;;;5014517;28;20175;-71
2022/02/01 07:52:12;;;;;;;19.80;9.87;;;;;;;;;;5032188;28;20179;-70
2022/02/01 07:54:37;;;;;;;16.23;8.80;;;;;;;;;;5031608;28;20221;-70
2022/02/01 07:57:02;;;;;;;14.60;8.03;;;;;;;;;;5032351;28;20313;-70
2022/02/01 07:59:27;;;;;;;15.03;7.63;;;;;;;;;;5032134;28;20214;-70
2022/02/01 08:01:52;;;;;;;13.43;8.27;;;;;;;;;;5033198;28;20173;-69
2022/02/01 08:04:18;;;;;;;15.57;8.80;;;;;;;;;;5029122;28;20759;-70
2022/02/01 08:06:43;;;;;;;12.07;7.23;;;;;;;;;;5032038;28;20184;-70
2022/02/01 08:09:19;;;;;;;12.40;6.83;;;;;;;;;;5031687;28;20185;-69
2022/02/01 08:11:45;;;;;;;10.67;6.60;;;;;;;;;;5029325;28;20174;-69
2022/02/01 08:17:05;;;;;;;8.93;6.73;;;;;;;;;;5032085;28;20205;-70
2022/02/01 08:19:29;;;;;;;8.57;6.10;;;;;;;;;;5030697;28;20239;-70
2022/02/01 08:21:55;;;;;;;11.10;5.70;;;;;;;;;;5012248;28;20286;-70
2022/02/01 08:24:20;;;;;;;8.33;5.57;;;;;;;;;;5025947;28;20201;-70
2022/02/01 08:26:45;;;;;;;8.07;6.50;;;;;;;;;;5029666;28;20240;-70
2022/02/01 08:29:12;;;;;;;8.10;5.27;;;;;;;;;;5029110;28;20660;-70
2022/02/01 08:31:37;;;;;;;8.40;5.53;;;;;;;;;;5030393;28;20194;-70
2022/02/01 08:34:03;;;;;;;6.27;5.20;;;;;;;;;;5012795;28;20281;-70
2022/02/01 08:36:28;;;;;;;7.93;5.57;;;;;;;;;;5031035;28;20167;-70
2022/02/01 08:38:54;;;;;;;7.83;5.17;;;;;;;;;;5013351;28;20186;-70
2022/02/01 08:41:19;;;;;;;12.20;5.87;;;;;;;;;;5030761;28;20182;-70
2022/02/01 08:43:45;;;;;;;5.97;5.07;;;;;;;;;;5019710;28;20182;-70
2022/02/01 08:46:10;;;;;;;6.93;5.40;;;;;;;;;;5019099;28;20198;-70
2022/02/01 08:48:35;;;;;;;6.83;4.87;;;;;;;;;;5027162;28;20236;-71
2022/02/01 08:51:05;;;;;;;6.37;5.20;;;;;;;;;;5024447;28;20178;-70
2022/02/01 08:53:43;;;;;;;7.40;5.30;;;;;;;;;;5026783;28;20550;-71
2022/02/01 08:56:09;;;;;;;9.67;6.13;;;;;;;;;;5027313;28;20658;-71
2022/02/01 08:58:35;;;;;;;7.50;6.03;;;;;;;;;;5010639;28;20184;-71
2022/02/01 09:01:00;;;;;;;6.57;5.57;;;;;;;;;;5029932;28;20178;-71
2022/02/01 09:03:25;;;;;;;7.23;5.57;;;;;;;;;;5023614;28;20192;-68
2022/02/01 09:05:52;;;;;;;6.67;5.23;;;;;;;;;;5021112;28;20216;-72
2022/02/01 09:08:18;;;;;;;7.37;5.43;;;;;;;;;;5029299;28;20668;-69
2022/02/01 09:10:44;;;;;;;6.93;4.90;;;;;;;;;;5026755;28;20178;-71
2022/02/01 09:13:09;;;;;;;6.87;4.93;;;;;;;;;;5027379;28;20667;-70
2022/02/01 09:15:34;;;;;;;7.97;5.40;;;;;;;;;;5027617;28;20190;-71
2022/02/01 09:18:00;;;;;;;9.33;5.87;;;;;;;;;;5028271;28;20206;-71
2022/02/01 09:20:26;;;;;;;7.83;5.67;;;;;;;;;;5025148;28;20178;-71
2022/02/01 09:22:51;;;;;;;5.57;4.70;;;;;;;;;;5009941;28;20676;-68
2022/02/01 09:25:18;;;;;;;7.03;4.83;;;;;;;;;;5027172;28;20679;-68
2022/02/01 09:27:44;;;;;;;9.43;5.23;;;;;;;;;;5030401;28;20233;-69
2022/02/01 09:30:09;;;;;;;7.90;5.10;;;;;;;;;;5009009;28;20175;-69
2022/02/01 09:32:35;;;;;;;6.73;4.67;;;;;;;;;;5030269;28;20173;-69
2022/02/01 09:35:00;;;;;;;6.17;4.63;;;;;;;;;;5026260;28;20256;-72
2022/02/01 09:37:25;;;;;;;5.67;4.33;;;;;;;;;;5027999;28;20264;-71
2022/02/01 09:39:50;;;;;;;6.33;4.03;;;;;;;;;;5028541;28;20197;-69
2022/02/01 09:42:16;;;;;;;5.73;4.60;;;;;;;;;;5028393;28;20213;-70
2022/02/01 09:44:41;;;;;;;7.00;4.50;;;;;;;;;;5024655;28;20251;-69
2022/02/01 09:47:06;;;;;;;6.23;4.43;;;;;;;;;;5027686;28;20255;-71
2022/02/01 09:49:31;;;;;;;5.83;4.03;;;;;;;;;;5028437;28;20539;-70
2022/02/01 09:51:57;;;;;;;6.57;4.30;;;;;;;;;;5025520;28;20182;-71
2022/02/01 09:54:24;;;;;;;7.97;4.40;;;;;;;;;;5028607;28;20198;-72
2022/02/01 09:56:50;;;;;;;5.90;4.20;;;;;;;;;;5028132;28;20758;-71
2022/02/01 09:59:21;;;;;;;7.07;4.23;;;;;;;;;;5029071;28;20186;-72
2022/02/01 10:01:54;;;;;;;7.60;4.90;;;;;;;;;;5026770;28;20175;-71
2022/02/01 10:04:23;;;;;;;7.83;5.77;;;;;;;;;;5028706;28;20663;-71
2022/02/01 10:06:48;;;;;;;13.63;5.83;;;;;;;;;;5022996;28;20182;-71
2022/02/01 10:09:14;;;;;;;12.00;5.87;;;;;;;;;;5008468;28;20174;-71
2022/02/01 10:11:41;;;;;;;7.33;5.10;;;;;;;;;;5029485;28;20682;-69
2022/02/01 10:14:07;;;;;;;7.57;5.50;;;;;;;;;;5024536;28;20177;-69
2022/02/01 10:16:40;;;;;;;12.63;8.13;;;;;;;;;;5026256;28;20229;-72
2022/02/01 10:19:06;;;;;;;13.60;6.57;;;;;;;;;;5029834;28;20583;-69
2022/02/01 10:21:31;;;;;;;9.97;5.60;;;;;;;;;;5031369;28;20182;-71
2022/02/01 10:24:02;;;;;;;15.30;6.83;;;;;;;;;;5032128;28;20193;-68
2022/02/01 10:26:28;;;;;;;12.60;6.33;;;;;;;;;;5032214;28;20182;-69
2022/02/01 10:31:34;;;;;;;13.67;7.43;;;;;;;;;;5033233;28;20186;-72
2022/02/01 10:34:26;;;;;;;11.57;6.17;;;;;;;;;;5025463;28;20632;-71
2022/02/01 10:36:51;;;;;;;13.70;7.37;;;;;;;;;;5032751;28;20209;-71
2022/02/01 10:39:21;;;;;;;13.80;7.33;;;;;;;;;;5032474;28;20206;-71
2022/02/01 10:41:52;;;;;;;11.50;7.40;;;;;;;;;;5032063;28;20181;-71
2022/02/01 10:44:18;;;;;;;14.23;7.77;;;;;;;;;;5016458;28;20178;-70
2022/02/01 10:46:51;;;;;;;14.63;7.80;;;;;;;;;;5032927;28;20201;-71
2022/02/01 10:49:25;;;;;;;13.17;8.07;;;;;;;;;;5030493;28;20258;-72
2022/02/01 10:51:59;;;;;;;15.03;8.97;;;;;;;;;;5036012;28;20205;-71
2022/02/01 10:54:24;;;;;;;17.20;9.17;;;;;;;;;;5029782;28;20228;-71
2022/02/01 10:56:49;;;;;;;16.40;9.93;;;;;;;;;;5030211;28;20178;-71
2022/02/01 10:59:14;;;;;;;22.73;10.53;;;;;;;;;;5029597;28;20190;-71
2022/02/01 11:01:40;;;;;;;20.33;11.00;;;;;;;;;;5030496;28;20194;-70
2022/02/01 11:04:08;;;;;;;17.00;11.07;;;;;;;;;;5012516;28;20629;-71
2022/02/01 11:06:35;;;;;;;23.13;11.93;;;;;;;;;;5010252;28;20205;-70
2022/02/01 11:09:00;;;;;;;22.13;11.87;;;;;;;;;;5018739;28;20932;-70
2022/02/01 11:11:25;;;;;;;23.63;11.63;;;;;;;;;;5026139;28;20208;-70
2022/02/01 11:13:51;;;;;;;25.70;11.30;;;;;;;;;;5029845;28;20686;-69
2022/02/01 11:16:20;;;;;;;19.93;11.37;;;;;;;;;;5030093;28;20206;-69
2022/02/01 11:18:54;;;;;;;22.93;10.77;;;;;;;;;;5032366;28;20194;-71
2022/02/01 11:21:20;;;;;;;19.23;10.37;;;;;;;;;;5010912;28;20644;-69
2022/02/01 11:23:49;;;;;;;23.37;9.70;;;;;;;;;;5031983;28;20178;-70
2022/02/01 11:26:50;;;;;;;15.40;7.73;;;;;;;;;;5013145;28;20208;-71
2022/02/01 11:31:50;;;;;;;20.30;7.70;;;;;;;;;;5030079;28;20542;-72
2022/02/01 11:34:25;;;;;;;23.27;8.10;;;;;;;;;;5029418;28;20183;-69
2022/02/01 11:36:58;;;;;;;17.07;7.13;;;;;;;;;;5028403;28;20534;-69
2022/02/01 11:39:23;;;;;;;20.10;7.93;;;;;;;;;;5030640;28;20170;-69
2022/02/01 11:41:50;;;;;;;23.10;8.20;;;;;;;;;;5029302;28;20514;-69
2022/02/01 11:44:20;;;;;;;19.97;7.90;;;;;;;;;;5028945;28;20183;-70
2022/02/01 11:47:00;;;;;;;21.80;6.27;;;;;;;;;;5027118;28;22373;-69
2022/02/01 11:49:25;;;;;;;20.67;6.77;;;;;;;;;;5029849;28;20660;-71
2022/02/01 11:51:51;;;;;;;16.07;5.90;;;;;;;;;;5028503;28;20185;-69
2022/02/01 11:54:18;;;;;;;15.43;5.67;;;;;;;;;;5011023;28;20644;-69
2022/02/01 11:56:44;;;;;;;16.40;6.40;;;;;;;;;;5031628;28;20183;-72
2022/02/01 11:59:13;;;;;;;17.23;5.37;;;;;;;;;;5026813;28;20236;-72
2022/02/01 12:01:39;;;;;;;19.00;6.67;;;;;;;;;;5028325;28;20178;-71
2022/02/01 12:04:12;;;;;;;13.23;4.83;;;;;;;;;;5027158;28;20225;-71
2022/02/01 12:06:47;;;;;;;17.23;5.83;;;;;;;;;;5028335;28;20182;-71
2022/02/01 12:09:19;;;;;;;14.23;5.60;;;;;;;;;;5027488;28;20215;-72
2022/02/01 12:11:45;;;;;;;19.30;4.93;;;;;;;;;;5018039;28;20178;-70
2022/02/01 12:14:10;;;;;;;17.70;5.03;;;;;;;;;;5019113;28;20197;-71
2022/02/01 12:16:35;;;;;;;11.70;4.83;;;;;;;;;;5024494;28;20483;-71
2022/02/01 12:19:03;;;;;;;15.40;5.17;;;;;;;;;;5027108;28;20232;-72
2022/02/01 12:21:28;;;;;;;10.90;4.30;;;;;;;;;;5030635;28;20266;-72
2022/02/01 12:23:54;;;;;;;16.40;4.67;;;;;;;;;;5028152;28;20269;-70
2022/02/01 12:26:21;;;;;;;12.00;4.70;;;;;;;;;;5012541;28;20451;-70
2022/02/01 12:28:46;;;;;;;11.13;4.57;;;;;;;;;;5028615;28;20260;-70
2022/02/01 12:31:12;;;;;;;12.33;4.20;;;;;;;;;;5027583;28;20175;-70
2022/02/01 12:33:39;;;;;;;15.23;4.70;;;;;;;;;;5023333;28;20265;-70
2022/02/01 12:36:04;;;;;;;8.03;3.70;;;;;;;;;;5029317;28;20190;-70
2022/02/01 12:38:30;;;;;;;17.13;3.63;;;;;;;;;;5027843;28;20174;-70
2022/02/01 12:41:03;;;;;;;10.97;4.10;;;;;;;;;;5028147;28;20229;-71
2022/02/01 12:43:32;;;;;;;11.07;4.67;;;;;;;;;;5027581;28;20179;-70
2022/02/01 12:48:26;;;;;;;10.43;3.63;;;;;;;;;;5024168;28;20275;-71
2022/02/01 12:51:02;;;;;;;9.33;3.30;;;;;;;;;;5029601;28;20178;-71
2022/02/01 12:53:37;;;;;;;10.07;2.83;;;;;;;;;;5026165;28;20170;-71
2022/02/01 12:56:10;;;;;;;8.23;2.90;;;;;;;;;;5026681;28;20730;-71
2022/02/01 12:58:35;;;;;;;8.00;4.20;;;;;;;;;;5029421;28;20189;-71
2022/02/01 13:01:00;;;;;;;10.70;3.20;;;;;;;;;;5010968;28;20244;-71
2022/02/01 13:03:26;;;;;;;6.67;2.93;;;;;;;;;;5028727;28;20189;-70
2022/02/01 13:05:55;;;;;;;8.20;3.37;;;;;;;;;;5051852;23;20556;-68
2022/02/01 13:08:36;;;;;;;6.87;3.10;;;;;;;;;;5025738;28;20225;-69
2022/02/01 13:21:55;;;;;;;7.87;3.00;;;;;;;;;;5027728;28;20217;-67
2022/02/01 13:24:28;;;;;;;10.63;2.37;;;;;;;;;;5042777;28;20174;-68
2022/02/01 13:26:53;;;;;;;9.40;2.97;;;;;;;;;;5034368;28;20470;-68
2022/02/01 13:29:18;;;;;;;8.63;2.93;;;;;;;;;;5032010;28;20650;-69
2022/02/01 13:31:49;;;;;;;7.37;3.23;;;;;;;;;;5028774;28;20276;-68
2022/02/01 13:34:14;;;;;;;6.30;2.43;;;;;;;;;;5024255;28;20265;-68
2022/02/01 13:36:44;;;;;;;6.07;2.40;;;;;;;;;;5028304;28;20352;-68
2022/02/01 13:39:09;;;;;;;10.20;3.63;;;;;;;;;;5025130;28;20667;-68
2022/02/01 13:41:36;;;;;;;9.20;3.07;;;;;;;;;;5027290;28;20182;-69
2022/02/01 13:44:02;;;;;;;11.83;5.33;;;;;;;;;;5026246;28;20178;-69
2022/02/01 13:46:29;;;;;;;11.33;2.90;;;;;;;;;;5023348;28;20871;-69
2022/02/01 13:49:05;;;;;;;6.30;2.93;;;;;;;;;;5028294;28;20221;-69
2022/02/01 13:51:31;;;;;;;9.60;3.00;;;;;;;;;;5029279;28;20601;-68
2022/02/01 13:53:58;;;;;;;6.07;2.50;;;;;;;;;;5026087;28;20232;-69
2022/02/01 13:56:25;;;;;;;9.13;3.20;;;;;;;;;;5030515;28;20252;-68
2022/02/01 13:58:50;;;;;;;8.13;2.73;;;;;;;;;;5031264;28;20210;-68
2022/02/01 14:01:16;;;;;;;7.60;2.60;;;;;;;;;;5032171;28;20217;-68
2022/02/01 14:03:46;;;;;;;5.90;2.63;;;;;;;;;;5028990;28;20186;-69
2022/02/01 14:34:56;;;;;;;7.37;3.03;;;;;;;;;;5031768;28;20245;-68
2022/02/01 14:38:09;;;;;;;8.27;2.40;;;;;;;;;;5030539;28;20212;-68
2022/02/01 14:45:20;;;;;;;7.33;2.70;;;;;;;;;;5028972;28;20206;-69
2022/02/01 14:47:45;;;;;;;12.00;2.67;;;;;;;;;;5031405;28;20213;-68
2022/02/01 14:50:11;;;;;;;41.70;4.70;;;;;;;;;;5027937;28;20174;-67
2022/02/01 14:52:38;;;;;;;15.63;3.20;;;;;;;;;;5028288;28;20220;-68
2022/02/01 14:55:12;;;;;;;9.53;2.37;;;;;;;;;;5031837;28;20202;-68
2022/02/01 15:13:41;;;;;;;10.47;2.67;;;;;;;;;;5027460;28;20261;-68
2022/02/01 15:16:06;;;;;;;12.00;2.50;;;;;;;;;;5026798;28;20648;-68
2022/02/01 15:18:31;;;;;;;13.17;2.83;;;;;;;;;;5019487;28;20186;-67
2022/02/01 15:20:56;;;;;;;17.80;3.90;;;;;;;;;;5022659;28;20181;-68
2022/02/01 15:23:22;;;;;;;9.67;2.70;;;;;;;;;;5029121;28;20175;-69
2022/02/01 15:25:48;;;;;;;10.20;2.90;;;;;;;;;;5028483;28;20242;-68
2022/02/01 15:28:14;;;;;;;15.43;2.77;;;;;;;;;;5028801;28;20213;-68
2022/02/01 15:30:39;;;;;;;8.80;2.37;;;;;;;;;;5029769;28;20175;-69
2022/02/01 15:33:07;;;;;;;12.73;2.33;;;;;;;;;;5029144;28;20261;-67
2022/02/01 15:35:33;;;;;;;10.87;2.90;;;;;;;;;;5031371;28;20640;-67
2022/02/01 15:37:59;;;;;;;8.40;2.97;;;;;;;;;;5029589;28;20182;-68
2022/02/01 15:46:44;;;;;;;13.90;2.67;;;;;;;;;;5029138;28;20213;-69
2022/02/01 15:56:53;;;;;;;14.50;2.80;;;;;;;;;;5025792;28;20225;-69
2022/02/01 15:59:21;;;;;;;15.17;3.13;;;;;;;;;;5024159;28;20221;-68
2022/02/01 16:04:16;;;;;;;15.53;2.87;;;;;;;;;;5023937;28;20190;-68
2022/02/01 16:06:47;;;;;;;19.33;3.00;;;;;;;;;;5010166;28;20765;-68
2022/02/01 16:09:23;;;;;;;17.70;3.33;;;;;;;;;;5010950;28;20197;-69
2022/02/01 16:11:48;;;;;;;15.50;3.30;;;;;;;;;;5027805;28;20648;-68
2022/02/01 16:14:13;;;;;;;15.23;3.47;;;;;;;;;;5027270;28;20174;-68
2022/02/01 16:16:39;;;;;;;12.27;3.60;;;;;;;;;;5033035;28;20209;-68
2022/02/01 16:19:05;;;;;;;14.67;3.70;;;;;;;;;;5039137;28;20182;-68
2022/02/01 16:21:30;;;;;;;13.23;3.73;;;;;;;;;;5018806;28;20878;-68
2022/02/01 16:23:56;;;;;;;14.17;3.40;;;;;;;;;;5027368;28;20256;-69
2022/02/01 16:26:21;;;;;;;16.37;4.90;;;;;;;;;;5030703;28;20202;-69
2022/02/01 16:28:47;;;;;;;20.67;3.23;;;;;;;;;;5030412;28;20650;-68
2022/02/01 16:31:15;;;;;;;17.43;3.53;;;;;;;;;;5030554;28;20177;-68
2022/02/01 16:33:40;;;;;;;15.33;3.07;;;;;;;;;;5005720;28;20554;-69
2022/02/01 16:36:05;;;;;;;13.53;4.07;;;;;;;;;;5030897;28;20186;-69
2022/02/01 16:38:30;;;;;;;22.37;4.27;;;;;;;;;;5026957;28;20175;-69
2022/02/01 16:40:55;;;;;;;13.73;3.53;;;;;;;;;;5030200;28;20170;-69
2022/02/01 16:43:21;;;;;;;8.47;3.20;;;;;;;;;;5026072;28;20182;-69
2022/02/01 16:45:47;;;;;;;11.80;3.73;;;;;;;;;;5008510;28;20205;-69
2022/02/01 16:48:14;;;;;;;13.47;2.83;;;;;;;;;;5027010;28;20248;-69
2022/02/01 16:50:39;;;;;;;19.47;3.67;;;;;;;;;;5029098;28;20201;-68
2022/02/01 16:53:10;;;;;;;14.60;3.63;;;;;;;;;;5029193;28;20707;-68
2022/02/01 16:55:45;;;;;;;17.87;3.30;;;;;;;;;;5027757;28;20664;-69
2022/02/01 16:58:23;;;;;;;14.17;3.00;;;;;;;;;;5024977;28;20217;-68
2022/02/01 17:00:51;;;;;;;16.87;3.53;;;;;;;;;;5028785;28;20201;-69
2022/02/01 17:03:18;;;;;;;17.30;5.03;;;;;;;;;;5030440;28;20675;-68
2022/02/01 17:05:44;;;;;;;18.37;3.37;;;;;;;;;;5025232;28;20877;-69
2022/02/01 17:08:11;;;;;;;19.00;4.23;;;;;;;;;;5026373;28;20198;-68
2022/02/01 17:10:36;;;;;;;20.27;4.53;;;;;;;;;;5028678;28;20174;-68
2022/02/01 17:13:12;;;;;;;17.10;3.17;;;;;;;;;;5026607;28;20179;-68
2022/02/01 17:18:35;;;;;;;19.43;3.53;;;;;;;;;;5028481;28;20697;-68
2022/02/01 17:23:44;;;;;;;17.47;3.10;;;;;;;;;;5025616;28;20197;-69
2022/02/01 17:26:11;;;;;;;15.00;2.93;;;;;;;;;;5027927;28;20210;-69